createdAt,value
2018-03-27T00:02:08.416Z,29.33
2018-03-27T00:04:35.851Z,26.47
2018-03-27T00:07:04.056Z,25.40
2018-03-27T00:09:31.541Z,27.87
2018-03-27T00:11:58.980Z,24.27
2018-03-27T00:14:26.433Z,26.47
2018-03-27T00:16:53.896Z,27.00
2018-03-27T00:19:21.332Z,37.57
2018-03-27T00:21:48.788Z,27.73
2018-03-27T00:24:16.277Z,31.73
2018-03-27T00:26:55.700Z,34.13
2018-03-27T00:29:35.084Z,29.67
2018-03-27T00:32:14.612Z,34.97
2018-03-27T00:34:53.917Z,33.83
2018-03-27T00:37:33.448Z,33.40
2018-03-27T00:40:12.924Z,35.87
2018-03-27T00:42:56.858Z,28.93
2018-03-27T00:45:24.286Z,38.63
2018-03-27T00:47:51.744Z,37.10
2018-03-27T00:50:19.185Z,33.87
2018-03-27T00:52:46.622Z,27.37
2018-03-27T00:55:14.938Z,29.10
2018-03-27T00:57:42.408Z,25.80
2018-03-27T01:00:09.850Z,26.87
2018-03-27T01:02:37.277Z,26.07
2018-03-27T01:05:09.380Z,25.77
2018-03-27T01:07:36.836Z,28.00
2018-03-27T01:10:04.273Z,28.37
2018-03-27T01:12:31.852Z,26.97
2018-03-27T01:14:59.308Z,27.20
2018-03-27T01:17:26.772Z,26.20
2018-03-27T01:19:54.260Z,26.23
2018-03-27T01:22:21.684Z,25.67
2018-03-27T01:24:49.117Z,26.30
2018-03-27T01:27:16.576Z,25.80
2018-03-27T01:29:44.014Z,25.93
2018-03-27T01:32:12.261Z,26.93
2018-03-27T01:34:39.716Z,27.27
2018-03-27T01:37:07.340Z,26.63
2018-03-27T01:39:34.796Z,25.47
2018-03-27T01:42:02.272Z,27.67
2018-03-27T01:44:29.730Z,25.77
2018-03-27T01:46:57.239Z,24.83
2018-03-27T01:49:24.624Z,26.07
2018-03-27T01:51:52.050Z,27.40
2018-03-27T01:54:20.273Z,26.90
2018-03-27T01:56:47.731Z,24.70
2018-03-27T01:59:15.153Z,25.10
2018-03-27T02:01:42.640Z,26.70
2018-03-27T02:04:10.083Z,29.07
2018-03-27T02:06:37.552Z,26.83
2018-03-27T02:09:05.107Z,26.73
2018-03-27T02:11:38.224Z,27.43
2018-03-27T02:14:11.475Z,26.40
2018-03-27T02:16:44.565Z,27.83
2018-03-27T02:19:17.748Z,29.90
2018-03-27T02:21:44.697Z,28.20
2018-03-27T02:24:13.140Z,30.87
2018-03-27T02:26:40.580Z,30.77
2018-03-27T02:29:08.020Z,29.67
2018-03-27T02:31:35.567Z,30.83
2018-03-27T02:34:02.978Z,30.37
2018-03-27T02:36:31.216Z,28.60
2018-03-27T02:38:58.655Z,28.20
2018-03-27T02:41:26.112Z,29.57
2018-03-27T02:43:53.594Z,29.00
2018-03-27T02:46:21.024Z,27.83
2018-03-27T02:48:48.457Z,31.93
2018-03-27T02:51:15.896Z,27.37
2018-03-27T02:53:44.099Z,31.27
2018-03-27T02:56:11.571Z,28.57
2018-03-27T02:58:39.028Z,38.10
2018-03-27T03:01:06.457Z,34.57
2018-03-27T03:03:34.682Z,35.40
2018-03-27T03:06:02.226Z,34.97
2018-03-27T03:08:29.662Z,28.97
2018-03-27T03:10:57.097Z,35.73
2018-03-27T03:13:25.317Z,49.23
2018-03-27T03:15:52.888Z,28.87
2018-03-27T03:18:20.328Z,42.47
2018-03-27T03:20:47.791Z,34.93
2018-03-27T03:23:15.231Z,44.83
2018-03-27T03:25:42.660Z,33.00
2018-03-27T03:28:11.001Z,42.23
2018-03-27T03:30:38.438Z,42.20
2018-03-27T03:33:05.887Z,41.10
2018-03-27T03:35:33.316Z,32.40
2018-03-27T03:38:00.747Z,35.43
2018-03-27T03:40:28.172Z,39.50
2018-03-27T03:42:55.634Z,36.33
2018-03-27T03:45:23.121Z,35.97
2018-03-27T03:47:50.668Z,39.80
2018-03-27T03:50:18.107Z,41.23
2018-03-27T03:52:45.548Z,45.00
2018-03-27T03:55:13.048Z,42.93
2018-03-27T03:57:41.257Z,41.43
2018-03-27T04:00:08.685Z,37.23
2018-03-27T04:02:36.132Z,28.20
2018-03-27T04:05:03.575Z,37.73
2018-03-27T04:07:31.024Z,40.60
2018-03-27T04:09:58.564Z,50.17
2018-03-27T04:12:26.136Z,44.43
2018-03-27T04:14:53.584Z,37.37
2018-03-27T04:17:21.026Z,44.23
2018-03-27T04:19:48.492Z,52.53
2018-03-27T04:22:16.680Z,43.30
2018-03-27T04:24:44.157Z,41.77
2018-03-27T04:27:11.612Z,39.43
2018-03-27T04:29:39.160Z,40.83
2018-03-27T04:32:06.611Z,51.67
2018-03-27T04:34:34.057Z,40.00
2018-03-27T04:37:01.562Z,39.87
2018-03-27T04:39:29.000Z,53.47
2018-03-27T04:41:56.453Z,57.50
2018-03-27T04:44:24.000Z,49.77
2018-03-27T04:46:51.456Z,48.73
2018-03-27T04:49:19.012Z,52.50
2018-03-27T04:51:46.481Z,55.03
2018-03-27T04:54:14.051Z,57.47
2018-03-27T04:56:41.601Z,54.97
2018-03-27T04:59:09.141Z,55.03
2018-03-27T05:01:36.620Z,67.03
2018-03-27T05:04:04.184Z,58.50
2018-03-27T05:06:31.717Z,64.67
2018-03-27T05:08:59.180Z,67.70
2018-03-27T05:11:26.637Z,60.00
2018-03-27T05:13:54.075Z,65.87
2018-03-27T05:16:21.545Z,48.67
2018-03-27T05:18:48.969Z,45.20
2018-03-27T05:21:17.188Z,36.80
2018-03-27T05:23:44.640Z,40.83
2018-03-27T05:26:12.193Z,42.90
2018-03-27T05:28:39.709Z,44.83
2018-03-27T05:31:08.033Z,41.83
2018-03-27T05:33:35.478Z,47.17
2018-03-27T05:36:02.972Z,42.70
2018-03-27T05:38:30.520Z,43.63
2018-03-27T05:40:57.972Z,45.30
2018-03-27T05:43:25.420Z,40.77
2018-03-27T05:45:52.919Z,27.83
2018-03-27T05:48:20.456Z,35.50
2018-03-27T05:50:47.898Z,38.33
2018-03-27T05:53:15.362Z,40.23
2018-03-27T05:55:42.822Z,36.53
2018-03-27T05:58:10.380Z,38.37
2018-03-27T06:00:37.796Z,36.33
2018-03-27T06:03:06.008Z,38.33
2018-03-27T06:05:33.444Z,38.13
2018-03-27T06:08:00.956Z,43.33
2018-03-27T06:10:28.389Z,40.40
2018-03-27T06:12:55.832Z,37.53
2018-03-27T06:15:23.387Z,45.10
2018-03-27T06:17:50.814Z,37.80
2018-03-27T06:20:19.026Z,45.63
2018-03-27T06:22:46.506Z,45.13
2018-03-27T06:25:14.053Z,42.53
2018-03-27T06:27:41.503Z,43.23
2018-03-27T06:30:08.933Z,42.63
2018-03-27T06:32:36.425Z,43.57
2018-03-27T06:35:03.971Z,39.33
2018-03-27T06:37:31.388Z,53.65
2018-03-27T06:39:59.604Z,61.58
2018-03-27T06:42:27.068Z,43.13
2018-03-27T06:44:54.544Z,43.63
2018-03-27T06:47:22.080Z,40.10
2018-03-27T06:49:49.537Z,39.47
2018-03-27T06:52:16.976Z,40.70
2018-03-27T06:54:44.602Z,40.67
2018-03-27T06:57:12.213Z,41.83
2018-03-27T06:59:39.638Z,39.20
2018-03-27T07:02:07.092Z,39.17
2018-03-27T07:04:35.310Z,37.37
2018-03-27T07:07:02.732Z,38.47
2018-03-27T07:09:30.985Z,38.27
2018-03-27T07:11:58.513Z,36.50
2018-03-27T07:14:25.978Z,38.10
2018-03-27T07:16:53.403Z,37.17
2018-03-27T07:19:20.873Z,36.93
2018-03-27T07:21:48.325Z,37.03
2018-03-27T07:24:15.769Z,37.83
2018-03-27T07:26:43.213Z,38.83
2018-03-27T07:29:10.696Z,37.17
2018-03-27T07:31:38.164Z,36.57
2018-03-27T07:34:05.600Z,35.43
2018-03-27T07:36:33.031Z,37.13
2018-03-27T07:39:00.543Z,36.60
2018-03-27T07:41:27.977Z,36.73
2018-03-27T07:43:55.447Z,38.00
2018-03-27T07:46:22.892Z,37.83
2018-03-27T07:48:50.318Z,36.57
2018-03-27T07:51:17.824Z,40.50
2018-03-27T07:53:45.269Z,39.23
2018-03-27T07:56:12.731Z,36.97
2018-03-27T07:58:40.170Z,38.90
2018-03-27T08:01:07.629Z,36.20
2018-03-27T08:03:35.137Z,35.60
2018-03-27T08:06:02.645Z,36.47
2018-03-27T08:08:30.102Z,35.23
2018-03-27T08:10:57.585Z,35.73
2018-03-27T08:13:25.036Z,33.63
2018-03-27T08:15:52.596Z,33.63
2018-03-27T08:18:20.060Z,32.43
2018-03-27T08:20:47.616Z,33.60
2018-03-27T08:23:15.056Z,33.40
2018-03-27T08:25:42.612Z,31.40
2018-03-27T08:28:10.173Z,32.53
2018-03-27T08:30:37.621Z,32.50
2018-03-27T08:33:05.083Z,32.53
2018-03-27T08:35:32.501Z,28.93
2018-03-27T08:38:00.724Z,28.80
2018-03-27T08:40:28.170Z,28.23
2018-03-27T08:42:55.642Z,25.53
2018-03-27T08:45:23.084Z,24.80
2018-03-27T08:47:50.568Z,24.53
2018-03-27T08:50:17.999Z,22.33
2018-03-27T08:52:45.469Z,23.93
2018-03-27T08:55:12.900Z,19.97
2018-03-27T08:57:40.328Z,21.47
2018-03-27T09:00:07.764Z,18.77
2018-03-27T09:02:35.210Z,19.50
2018-03-27T09:05:02.663Z,18.33
2018-03-27T09:07:30.109Z,17.67
2018-03-27T09:09:57.662Z,17.07
2018-03-27T09:12:25.074Z,17.70
2018-03-27T09:14:53.289Z,17.13
2018-03-27T09:17:20.747Z,18.27
2018-03-27T09:19:48.225Z,17.40
2018-03-27T09:22:15.780Z,17.47
2018-03-27T09:24:43.220Z,17.03
2018-03-27T09:27:10.652Z,16.47
2018-03-27T09:29:38.088Z,15.73
2018-03-27T09:32:06.299Z,15.60
2018-03-27T09:34:33.725Z,16.53
2018-03-27T09:37:01.956Z,15.03
2018-03-27T09:39:29.417Z,15.93
2018-03-27T09:41:56.886Z,15.67
2018-03-27T09:44:24.335Z,15.63
2018-03-27T09:46:51.873Z,14.40
2018-03-27T09:49:19.289Z,15.87
2018-03-27T09:51:47.504Z,16.63
2018-03-27T09:54:14.924Z,16.13
2018-03-27T09:56:43.131Z,15.23
2018-03-27T09:59:10.573Z,14.53
2018-03-27T10:01:40.011Z,14.53
2018-03-27T10:04:07.460Z,15.97
2018-03-27T10:06:34.906Z,15.17
2018-03-27T10:09:02.392Z,14.40
2018-03-27T10:11:29.818Z,15.07
2018-03-27T10:13:57.402Z,14.80
2018-03-27T10:16:24.942Z,14.40
2018-03-27T10:18:52.408Z,15.40
2018-03-27T10:21:19.874Z,15.40
2018-03-27T10:23:47.416Z,13.87
2018-03-27T10:26:14.839Z,13.77
2018-03-27T10:28:43.269Z,13.97
2018-03-27T10:31:10.719Z,14.00
2018-03-27T10:33:38.167Z,13.53
2018-03-27T10:36:05.590Z,13.37
2018-03-27T10:38:33.845Z,12.97
2018-03-27T10:41:01.215Z,13.73
2018-03-27T10:43:29.442Z,12.60
2018-03-27T10:45:56.872Z,13.33
2018-03-27T10:48:24.306Z,12.30
2018-03-27T10:50:52.604Z,11.20
2018-03-27T10:53:20.093Z,11.17
2018-03-27T10:55:47.545Z,10.50
2018-03-27T10:58:14.994Z,11.80
2018-03-27T11:00:42.461Z,11.87
2018-03-27T11:03:09.916Z,11.00
2018-03-27T11:05:37.372Z,10.97
2018-03-27T11:08:04.820Z,10.97
2018-03-27T11:10:32.295Z,10.10
2018-03-27T11:12:59.940Z,10.67
2018-03-27T11:15:27.352Z,10.07
2018-03-27T11:17:55.548Z,9.37
2018-03-27T11:20:22.997Z,9.90
2018-03-27T11:22:51.310Z,10.13
2018-03-27T11:25:18.744Z,9.73
2018-03-27T11:27:46.216Z,9.73
2018-03-27T11:30:13.625Z,9.10
2018-03-27T11:32:41.141Z,9.37
2018-03-27T11:35:08.590Z,8.73
2018-03-27T11:37:36.061Z,9.10
2018-03-27T11:40:03.514Z,8.83
2018-03-27T11:42:30.958Z,8.97
2018-03-27T11:44:58.393Z,9.03
2018-03-27T11:47:26.600Z,9.23
2018-03-27T11:49:54.065Z,8.40
2018-03-27T11:52:21.480Z,9.53
2018-03-27T11:54:48.912Z,8.43
2018-03-27T11:57:16.432Z,8.87
2018-03-27T11:59:43.878Z,9.10
2018-03-27T12:02:11.293Z,8.90
2018-03-27T12:04:39.521Z,10.30
2018-03-27T12:07:06.977Z,10.23
2018-03-27T12:09:34.416Z,9.53
2018-03-27T12:12:01.874Z,8.93
2018-03-27T12:14:29.296Z,9.10
2018-03-27T12:16:57.515Z,10.00
2018-03-27T12:19:24.957Z,9.57
2018-03-27T12:21:52.377Z,10.40
2018-03-27T12:24:19.804Z,9.37
2018-03-27T12:26:47.262Z,10.67
2018-03-27T12:29:14.699Z,11.27
2018-03-27T12:31:42.210Z,12.53
2018-03-27T12:34:09.729Z,12.43
2018-03-27T12:36:37.174Z,12.07
2018-03-27T12:39:04.690Z,12.33
2018-03-27T12:41:32.294Z,11.17
2018-03-27T12:44:01.297Z,12.13
2018-03-27T12:46:28.749Z,11.30
2018-03-27T12:48:56.209Z,12.20
2018-03-27T12:51:23.647Z,13.33
2018-03-27T12:53:51.072Z,11.70
2018-03-27T12:56:19.392Z,12.43
2018-03-27T12:58:46.824Z,12.20
2018-03-27T13:01:14.302Z,12.80
2018-03-27T13:03:41.772Z,12.03
2018-03-27T13:06:09.225Z,13.17
2018-03-27T13:08:36.660Z,15.60
2018-03-27T13:11:04.131Z,16.40
2018-03-27T13:13:31.575Z,16.07
2018-03-27T13:15:59.009Z,15.80
2018-03-27T13:18:26.489Z,17.00
2018-03-27T13:20:53.917Z,16.33
2018-03-27T13:23:22.121Z,16.00
2018-03-27T13:25:49.590Z,16.63
2018-03-27T13:28:17.005Z,19.03
2018-03-27T13:30:45.209Z,18.17
2018-03-27T13:33:12.808Z,20.17
2018-03-27T13:35:40.288Z,19.30
2018-03-27T13:38:09.216Z,21.23
2018-03-27T13:40:36.652Z,20.33
2018-03-27T13:43:04.848Z,21.27
2018-03-27T13:45:32.289Z,21.03
2018-03-27T13:48:00.530Z,21.57
2018-03-27T13:50:27.934Z,22.90
2018-03-27T13:52:55.358Z,23.67
2018-03-27T13:55:22.800Z,23.20
2018-03-27T13:57:50.237Z,22.90
2018-03-27T14:00:17.733Z,24.63
2018-03-27T14:02:45.173Z,24.73
2018-03-27T14:05:12.603Z,25.47
2018-03-27T14:07:40.804Z,24.17
2018-03-27T14:10:08.281Z,25.77
2018-03-27T14:12:35.717Z,26.70
2018-03-27T14:15:03.246Z,27.83
2018-03-27T14:17:30.648Z,26.80
2018-03-27T14:19:58.109Z,28.00
2018-03-27T14:22:25.562Z,28.43
2018-03-27T14:24:53.003Z,28.20
2018-03-27T14:27:20.474Z,29.70
2018-03-27T14:29:47.925Z,30.67
2018-03-27T14:32:15.401Z,30.87
2018-03-27T14:34:42.848Z,30.47
2018-03-27T14:37:10.261Z,31.87
2018-03-27T14:39:38.503Z,31.43
2018-03-27T14:42:05.945Z,31.27
2018-03-27T14:44:33.463Z,30.70
2018-03-27T14:47:00.853Z,30.30
2018-03-27T14:49:28.284Z,29.90
2018-03-27T14:51:55.722Z,29.67
2018-03-27T14:54:23.927Z,32.07
2018-03-27T14:56:51.395Z,30.80
2018-03-27T14:59:18.809Z,32.63
2018-03-27T15:01:47.035Z,31.53
2018-03-27T15:04:14.473Z,30.57
2018-03-27T15:06:41.907Z,30.47
2018-03-27T15:09:10.121Z,31.33
2018-03-27T15:11:37.613Z,30.50
2018-03-27T15:14:05.846Z,31.80
2018-03-27T15:16:33.268Z,30.27
2018-03-27T15:19:01.581Z,28.70
2018-03-27T15:21:29.002Z,32.00
2018-03-27T15:23:57.204Z,30.47
2018-03-27T15:26:24.629Z,29.80
2018-03-27T15:28:52.865Z,31.50
2018-03-27T15:31:20.311Z,29.23
2018-03-27T15:33:47.769Z,30.73
2018-03-27T15:36:15.199Z,31.73
2018-03-27T15:38:42.684Z,30.83
2018-03-27T15:41:10.129Z,32.93
2018-03-27T15:43:37.699Z,25.83
2018-03-27T15:46:05.130Z,25.20
2018-03-27T15:48:32.565Z,23.27
2018-03-27T15:51:00.779Z,21.57
2018-03-27T15:53:28.221Z,23.83
2018-03-27T15:55:55.648Z,22.87
2018-03-27T15:58:23.852Z,25.17
2018-03-27T16:00:51.323Z,25.43
2018-03-27T16:03:18.744Z,25.17
2018-03-27T16:05:46.936Z,23.20
2018-03-27T16:08:14.384Z,24.33
2018-03-27T16:10:41.868Z,24.17
2018-03-27T16:13:09.339Z,25.03
2018-03-27T16:15:36.797Z,24.47
2018-03-27T16:18:04.376Z,24.17
2018-03-27T16:20:31.905Z,24.80
2018-03-27T16:22:59.367Z,26.63
2018-03-27T16:25:26.793Z,22.07
2018-03-27T16:27:54.241Z,22.57
2018-03-27T16:30:21.668Z,21.30
2018-03-27T16:32:50.643Z,22.03
2018-03-27T16:35:18.061Z,21.90
2018-03-27T16:37:45.508Z,22.40
2018-03-27T16:40:13.729Z,21.20
2018-03-27T16:42:41.179Z,21.60
2018-03-27T16:45:08.649Z,22.00
2018-03-27T16:47:36.096Z,22.07
2018-03-27T16:50:03.525Z,20.17
2018-03-27T16:52:30.964Z,21.70
2018-03-27T16:54:59.271Z,22.23
2018-03-27T16:57:26.734Z,19.10
2018-03-27T16:59:54.177Z,17.10
2018-03-27T17:02:21.604Z,16.30
2018-03-27T17:04:49.804Z,17.63
2018-03-27T17:07:17.289Z,14.67
2018-03-27T17:09:44.834Z,17.00
2018-03-27T17:12:12.245Z,16.63
2018-03-27T17:14:40.457Z,15.43
2018-03-27T17:17:07.932Z,14.70
2018-03-27T17:19:35.337Z,14.03
2018-03-27T17:22:03.552Z,15.60
2018-03-27T17:24:30.985Z,15.97
2018-03-27T17:26:59.216Z,13.63
2018-03-27T17:29:26.659Z,15.87
2018-03-27T17:31:54.089Z,15.77
2018-03-27T17:34:21.523Z,15.23
2018-03-27T17:36:49.737Z,14.70
2018-03-27T17:39:17.172Z,16.40
2018-03-27T17:41:44.620Z,13.30
2018-03-27T17:44:12.057Z,13.57
2018-03-27T17:46:40.254Z,12.53
2018-03-27T17:49:07.694Z,12.80
2018-03-27T17:51:35.896Z,12.10
2018-03-27T17:54:03.329Z,11.10
2018-03-27T17:56:31.552Z,11.23
2018-03-27T17:58:59.016Z,12.07
2018-03-27T18:01:26.469Z,10.97
2018-03-27T18:03:53.896Z,11.40
2018-03-27T18:06:21.368Z,11.20
2018-03-27T18:08:48.832Z,11.00
2018-03-27T18:11:16.285Z,12.17
2018-03-27T18:13:43.850Z,12.50
2018-03-27T18:16:11.265Z,12.03
2018-03-27T18:18:39.460Z,11.37
2018-03-27T18:21:06.930Z,12.73
2018-03-27T18:23:34.342Z,12.37
2018-03-27T18:26:02.576Z,12.50
2018-03-27T18:28:30.030Z,12.83
2018-03-27T18:30:57.636Z,13.67
2018-03-27T18:33:24.992Z,13.77
2018-03-27T18:35:53.225Z,14.27
2018-03-27T18:38:20.672Z,13.33
2018-03-27T18:40:48.115Z,14.77
2018-03-27T18:43:15.581Z,14.87
2018-03-27T18:45:43.002Z,15.00
2018-03-27T18:48:11.212Z,15.17
2018-03-27T18:50:38.681Z,16.27
2018-03-27T18:53:06.128Z,14.50
2018-03-27T18:55:33.556Z,14.97
2018-03-27T18:58:01.000Z,16.10
2018-03-27T19:00:29.202Z,14.27
2018-03-27T19:02:56.689Z,16.50
2018-03-27T19:05:24.128Z,15.90
2018-03-27T19:07:51.557Z,16.83
2018-03-27T19:10:19.760Z,16.40
2018-03-27T19:12:47.235Z,17.23
2018-03-27T19:15:14.668Z,16.50
2018-03-27T19:17:42.145Z,16.27
2018-03-27T19:20:09.596Z,16.70
2018-03-27T19:22:37.045Z,17.57
2018-03-27T19:25:04.520Z,16.60
2018-03-27T19:27:32.001Z,16.13
2018-03-27T19:29:59.414Z,16.47
2018-03-27T19:32:26.840Z,17.50
2018-03-27T19:34:55.057Z,17.27
2018-03-27T19:37:22.488Z,18.57
2018-03-27T19:39:49.916Z,18.27
2018-03-27T19:42:18.145Z,19.43
2018-03-27T19:44:45.612Z,18.50
2018-03-27T19:47:13.060Z,19.07
2018-03-27T19:49:40.507Z,19.37
2018-03-27T19:52:07.941Z,19.97
2018-03-27T19:54:36.137Z,21.40
2018-03-27T19:57:03.596Z,22.37
2018-03-27T19:59:31.013Z,21.17
2018-03-27T20:01:59.331Z,22.30
2018-03-27T20:04:26.782Z,22.00
2018-03-27T20:06:54.956Z,23.77
2018-03-27T20:09:22.429Z,22.23
2018-03-27T20:11:49.874Z,21.63
2018-03-27T20:14:17.438Z,22.97
2018-03-27T20:16:44.857Z,23.77
2018-03-27T20:19:13.065Z,25.70
2018-03-27T20:21:40.532Z,23.27
2018-03-27T20:24:07.960Z,24.43
2018-03-27T20:26:35.407Z,25.23
2018-03-27T20:29:03.628Z,27.33
2018-03-27T20:31:31.056Z,24.70
2018-03-27T20:33:58.487Z,28.00
2018-03-27T20:36:26.700Z,28.70
2018-03-27T20:38:54.162Z,28.40
2018-03-27T20:41:21.624Z,32.53
2018-03-27T20:43:49.080Z,29.90
2018-03-27T20:46:16.545Z,30.90
2018-03-27T20:48:43.985Z,29.60
2018-03-27T20:51:11.408Z,31.13
2018-03-27T20:53:39.602Z,31.90
2018-03-27T20:56:07.178Z,32.53
2018-03-27T20:58:34.664Z,33.17
2018-03-27T21:01:04.192Z,35.33
2018-03-27T21:03:31.724Z,34.57
2018-03-27T21:05:59.159Z,33.73
2018-03-27T21:08:26.629Z,35.63
2018-03-27T21:10:54.092Z,33.47
2018-03-27T21:13:21.529Z,33.30
2018-03-27T21:15:48.963Z,34.43
2018-03-27T21:18:17.150Z,34.67
2018-03-27T21:20:44.625Z,33.57
2018-03-27T21:23:12.052Z,33.97
2018-03-27T21:25:39.537Z,30.57
2018-03-27T21:28:06.969Z,36.70
2018-03-27T21:30:34.446Z,35.27
2018-03-27T21:33:01.874Z,34.87
2018-03-27T21:35:30.060Z,34.40
2018-03-27T21:37:57.533Z,33.50
2018-03-27T21:40:24.966Z,36.00
2018-03-27T21:42:53.177Z,34.30
2018-03-27T21:45:20.637Z,35.10
2018-03-27T21:47:48.088Z,37.00
2018-03-27T21:50:15.512Z,35.00
2018-03-27T21:52:42.949Z,37.23
2018-03-27T21:55:11.157Z,36.23
2018-03-27T21:57:38.579Z,36.57
2018-03-27T22:00:07.722Z,37.00
2018-03-27T22:02:35.167Z,36.07
2018-03-27T22:05:02.613Z,37.90
2018-03-27T22:07:30.094Z,36.73
2018-03-27T22:09:57.539Z,36.30
2018-03-27T22:12:24.974Z,38.00
2018-03-27T22:14:52.407Z,35.20
2018-03-27T22:17:19.844Z,37.83
2018-03-27T22:19:47.285Z,37.50
2018-03-27T22:22:14.732Z,37.23
2018-03-27T22:24:42.178Z,37.73
2018-03-27T22:27:09.640Z,36.20
2018-03-27T22:29:37.086Z,40.63
2018-03-27T22:32:04.525Z,36.30
2018-03-27T22:34:32.829Z,37.70
2018-03-27T22:37:00.254Z,40.73
2018-03-27T22:39:28.466Z,39.13
2018-03-27T22:41:55.900Z,41.17
2018-03-27T22:44:23.481Z,40.77
2018-03-27T22:46:50.906Z,44.07
2018-03-27T22:49:18.466Z,37.57
2018-03-27T22:51:45.828Z,45.20
2018-03-27T22:54:13.276Z,40.40
2018-03-27T22:56:41.469Z,44.07
2018-03-27T22:59:08.952Z,42.30
2018-03-27T23:01:36.392Z,43.63
2018-03-27T23:04:03.863Z,43.47
2018-03-27T23:06:31.292Z,46.00
2018-03-27T23:08:58.768Z,47.20
2018-03-27T23:11:26.204Z,43.27
2018-03-27T23:13:53.684Z,45.27
2018-03-27T23:16:21.131Z,42.43
2018-03-27T23:18:48.557Z,47.50
2018-03-27T23:21:16.762Z,44.87
2018-03-27T23:23:44.272Z,43.47
2018-03-27T23:26:11.801Z,45.70
2018-03-27T23:28:39.244Z,41.77
2018-03-27T23:31:06.701Z,43.23
2018-03-27T23:33:34.169Z,51.37
2018-03-27T23:36:01.725Z,45.40
2018-03-27T23:38:29.187Z,44.90
2018-03-27T23:40:56.631Z,46.77
2018-03-27T23:43:24.102Z,48.90
2018-03-27T23:45:51.553Z,45.40
2018-03-27T23:48:19.012Z,54.87
2018-03-27T23:50:46.459Z,48.73
2018-03-27T23:53:13.893Z,51.67
2018-03-27T23:55:41.384Z,50.50
2018-03-27T23:58:08.841Z,53.73
